首页
METAR-TAF:

METAR-TAF

机场 :

哥伦比亚, 南卡罗来纳州, 美国

纬度: 33-56-31N, 经度: 081-07-05W, 海拔: 71米

当前天气观测

该预报发布于1小时和3分钟前的00:56 UTC
风速6节,风向
温度 7°C
湿度 36%
气压 1035 hPa
能見度: 16.1公里
阴天层高于2600英尺

METAR: KCAE 230056Z 08006KT 10SM OVC026 07/M07 A3055 RMK AO2 SLP345 T00671072

时间: 20:59 (01:59 UTC)

预报

该预报发布于1小时和43分钟前的00:16 UTC
预报有效从23日的 00点(UTC)到 23日的 24点(UTC)
风速7节,风向东转东北
能見度: 10公里
阴天层高于2900英尺
从 23日的 0700点(UTC)
风速3节,风向东转东北
能見度: 10公里
阴天层高于1800英尺
附近有阵雨
从 23日的 1000点(UTC)
风速3节,风向多变
能見度: 8.0公里
阴天层高于600英尺
轻雾, 附近有阵雨
从 23日的 1900点(UTC)
风速8节,风向南转南东
能見度: 6.4公里
阴天层高于900英尺
小雨, 轻雾

TAF: KCAE 230016Z 2300/2324 07007KT P6SM OVC029 WS020/14035KT FM230700 07003KT P6SM VCSH OVC018 WS020/16035KT FM231000 VRB03KT 5SM BR VCSH OVC006 FM231900 15008KT 4SM -RA BR OVC009

超过4000个机场的气象观测和天气预报(METAR&TAF报告)。

可查询的气象台以黄色和红色小点在地图上表示。

将鼠标移到小点上方,可查看气象台名称。

然后点击查看天气观测和预报。

如需切换地图:点击带黑十字的绿色按钮放大地图;点击带横线的绿色按钮缩小地图;或者点击绿色箭头查看邻近地区的地图。


METAR-TAF: